createdAt,value
2023-05-17T00:00:56.070Z,4.15
2023-05-17T00:03:22.736Z,3.53
2023-05-17T00:05:50.310Z,6.63
2023-05-17T00:08:17.041Z,3.08
2023-05-17T00:10:43.767Z,3.47
2023-05-17T00:13:10.742Z,2.85
2023-05-17T00:15:37.460Z,5.30
2023-05-17T00:18:04.397Z,3.00
2023-05-17T00:20:31.277Z,4.68
2023-05-17T00:22:57.995Z,3.25
2023-05-17T00:25:24.676Z,6.53
2023-05-17T00:27:51.624Z,3.72
2023-05-17T00:30:18.362Z,5.68
2023-05-17T00:32:46.934Z,3.10
2023-05-17T00:35:14.048Z,4.35
2023-05-17T00:37:40.861Z,7.28
2023-05-17T00:40:08.380Z,7.00
2023-05-17T00:42:35.205Z,7.03
2023-05-17T00:45:01.947Z,1.95
2023-05-17T00:47:28.724Z,2.03
2023-05-17T00:49:55.771Z,3.92
2023-05-17T00:52:22.658Z,4.57
2023-05-17T00:54:51.534Z,8.18
2023-05-17T00:57:18.448Z,3.90
2023-05-17T00:59:45.859Z,2.13
2023-05-17T01:02:12.627Z,4.88
2023-05-17T01:04:39.380Z,3.53
2023-05-17T01:07:06.800Z,4.03
2023-05-17T01:09:33.893Z,6.60
2023-05-17T01:12:25.913Z,8.63
2023-05-17T01:15:06.226Z,3.13
2023-05-17T01:18:01.292Z,2.15
2023-05-17T01:20:41.414Z,4.15
2023-05-17T01:23:28.057Z,1.95
2023-05-17T01:26:17.513Z,3.47
2023-05-17T01:28:47.374Z,2.22
2023-05-17T01:31:14.881Z,4.97
2023-05-17T01:33:41.810Z,1.30
2023-05-17T01:36:09.212Z,5.43
2023-05-17T01:38:35.967Z,3.50
2023-05-17T01:41:13.022Z,3.42
2023-05-17T01:44:05.975Z,2.45
2023-05-17T01:46:43.445Z,6.30
2023-05-17T01:49:32.133Z,2.40
2023-05-17T01:52:24.312Z,2.28
2023-05-17T01:55:10.609Z,1.48
2023-05-17T01:57:37.950Z,3.00
2023-05-17T02:00:10.049Z,3.28
2023-05-17T02:02:37.086Z,3.67
2023-05-17T02:05:04.158Z,2.65
2023-05-17T02:07:31.210Z,1.70
2023-05-17T02:09:58.054Z,4.28
2023-05-17T02:12:25.413Z,2.45
2023-05-17T02:14:52.153Z,2.20
2023-05-17T02:17:18.889Z,2.38
2023-05-17T02:19:45.580Z,3.17
2023-05-17T02:22:19.665Z,2.72
2023-05-17T02:24:47.243Z,3.53
2023-05-17T02:27:13.933Z,4.35
2023-05-17T02:29:40.610Z,1.50
2023-05-17T02:32:07.561Z,2.70
2023-05-17T02:34:34.362Z,4.15
2023-05-17T02:37:01.043Z,1.48
2023-05-17T02:39:27.703Z,4.25
2023-05-17T02:41:54.427Z,1.00
2023-05-17T02:44:21.105Z,3.13
2023-05-17T02:46:47.893Z,2.33
2023-05-17T02:49:14.564Z,1.30
2023-05-17T02:51:41.298Z,1.92
2023-05-17T02:54:07.944Z,2.00
2023-05-17T02:56:34.689Z,1.20
2023-05-17T02:59:01.390Z,2.45
2023-05-17T03:01:28.269Z,2.85
2023-05-17T03:03:55.149Z,4.82
2023-05-17T03:06:22.156Z,1.15
2023-05-17T03:08:48.935Z,1.77
2023-05-17T03:11:15.784Z,3.80
2023-05-17T03:13:42.453Z,2.88
2023-05-17T03:16:09.574Z,1.30
2023-05-17T03:18:36.489Z,2.20
2023-05-17T03:21:03.598Z,3.25
2023-05-17T03:23:30.269Z,2.38
2023-05-17T03:25:56.973Z,3.38
2023-05-17T03:28:23.734Z,3.63
2023-05-17T03:30:50.706Z,2.28
2023-05-17T03:33:18.528Z,1.08
2023-05-17T03:35:46.970Z,1.60
2023-05-17T03:38:13.642Z,2.80
2023-05-17T03:40:41.816Z,1.83
2023-05-17T03:43:08.458Z,1.02
2023-05-17T03:45:35.416Z,1.15
2023-05-17T03:48:02.132Z,2.95
2023-05-17T03:50:29.782Z,1.95
2023-05-17T03:52:56.463Z,4.00
2023-05-17T03:55:23.190Z,4.80
2023-05-17T03:57:49.995Z,1.35
2023-05-17T04:00:21.713Z,4.10
2023-05-17T04:02:49.229Z,1.63
2023-05-17T04:05:16.575Z,2.97
2023-05-17T04:07:43.739Z,5.07
2023-05-17T04:10:11.164Z,5.45
2023-05-17T04:12:38.265Z,2.00
2023-05-17T04:15:06.254Z,2.78
2023-05-17T04:17:33.211Z,2.47
2023-05-17T04:19:59.906Z,1.33
2023-05-17T04:22:26.595Z,2.00
2023-05-17T04:24:54.191Z,2.25
2023-05-17T04:27:21.934Z,2.30
2023-05-17T04:29:48.668Z,0.77
2023-05-17T04:32:15.427Z,3.42
2023-05-17T04:34:43.171Z,3.67
2023-05-17T04:37:09.980Z,5.03
2023-05-17T04:39:36.741Z,4.22
2023-05-17T04:42:03.637Z,3.47
2023-05-17T04:44:31.143Z,1.67
2023-05-17T04:47:00.453Z,1.67
2023-05-17T04:49:27.159Z,4.20
2023-05-17T04:51:53.878Z,2.42
2023-05-17T04:54:20.994Z,1.73
2023-05-17T04:56:47.664Z,2.50
2023-05-17T04:59:16.098Z,4.13
2023-05-17T05:01:42.854Z,4.30
2023-05-17T05:04:09.688Z,3.25
2023-05-17T05:06:37.013Z,1.73
2023-05-17T05:09:04.260Z,2.80
2023-05-17T05:11:32.660Z,1.20
2023-05-17T05:13:59.382Z,2.97
2023-05-17T05:16:26.432Z,0.98
2023-05-17T05:18:55.069Z,5.28
2023-05-17T05:21:23.569Z,4.50
2023-05-17T05:23:50.379Z,3.47
2023-05-17T05:26:19.074Z,4.78
2023-05-17T05:28:45.910Z,4.05
2023-05-17T05:31:14.058Z,2.35
2023-05-17T05:33:41.115Z,3.55
2023-05-17T05:36:08.013Z,1.70
2023-05-17T05:38:34.723Z,2.33
2023-05-17T05:41:01.472Z,3.53
2023-05-17T05:43:28.420Z,1.65
2023-05-17T05:45:56.114Z,3.10
2023-05-17T05:48:22.892Z,2.22
2023-05-17T05:50:49.676Z,2.78
2023-05-17T05:53:19.371Z,2.13
2023-05-17T05:55:47.703Z,1.50
2023-05-17T05:58:15.780Z,3.75
2023-05-17T06:00:42.503Z,1.77
2023-05-17T06:03:09.353Z,9.38
2023-05-17T06:05:36.185Z,0.93
2023-05-17T06:08:04.827Z,2.50
2023-05-17T06:10:31.844Z,2.30
2023-05-17T06:13:00.794Z,1.75
2023-05-17T06:15:28.138Z,2.28
2023-05-17T06:17:54.919Z,2.53
2023-05-17T06:20:21.707Z,1.25
2023-05-17T06:22:49.776Z,3.53
2023-05-17T06:25:18.608Z,1.70
2023-05-17T06:27:45.409Z,2.72
2023-05-17T06:30:14.746Z,1.70
2023-05-17T06:32:42.443Z,3.97
2023-05-17T06:35:09.828Z,2.65
2023-05-17T06:37:36.933Z,1.55
2023-05-17T06:40:16.550Z,1.42
2023-05-17T06:42:44.308Z,4.20
2023-05-17T06:45:14.904Z,1.65
2023-05-17T06:47:41.744Z,2.95
2023-05-17T06:50:10.882Z,1.90
2023-05-17T06:52:37.643Z,3.60
2023-05-17T06:55:04.703Z,1.20
2023-05-17T06:57:32.031Z,0.98
2023-05-17T06:59:58.818Z,1.23
2023-05-17T07:02:29.076Z,1.67
2023-05-17T07:04:58.732Z,1.42
2023-05-17T07:07:25.482Z,1.15
2023-05-17T07:09:52.161Z,0.95
2023-05-17T07:12:18.885Z,2.95
2023-05-17T07:14:47.517Z,2.22
2023-05-17T07:17:14.209Z,2.58
2023-05-17T07:19:43.361Z,3.30
2023-05-17T07:22:12.869Z,2.00
2023-05-17T07:24:39.565Z,3.08
2023-05-17T07:27:07.177Z,2.00
2023-05-17T07:29:33.877Z,1.67
2023-05-17T07:32:00.603Z,2.83
2023-05-17T07:34:27.370Z,2.85
2023-05-17T07:36:56.303Z,2.08
2023-05-17T07:39:23.048Z,2.15
2023-05-17T07:41:49.727Z,3.00
2023-05-17T07:44:19.941Z,3.10
2023-05-17T07:46:46.671Z,1.75
2023-05-17T07:49:16.297Z,2.03
2023-05-17T07:51:42.973Z,1.90
2023-05-17T07:54:09.700Z,1.15
2023-05-17T07:56:37.244Z,2.58
2023-05-17T07:59:07.156Z,2.00
2023-05-17T08:01:34.591Z,3.53
2023-05-17T08:04:01.251Z,2.70
2023-05-17T08:06:29.722Z,1.17
2023-05-17T08:08:56.458Z,2.00
2023-05-17T08:11:23.171Z,3.90
2023-05-17T08:13:49.903Z,3.70
2023-05-17T08:16:18.163Z,3.47
2023-05-17T08:18:45.128Z,1.70
2023-05-17T08:21:13.344Z,2.38
2023-05-17T08:23:41.493Z,3.05
2023-05-17T08:26:08.188Z,1.85
2023-05-17T08:28:34.898Z,2.40
2023-05-17T08:31:01.974Z,3.42
2023-05-17T08:33:29.508Z,1.10
2023-05-17T08:35:57.803Z,1.83
2023-05-17T08:38:26.793Z,3.70
2023-05-17T08:40:56.874Z,1.63
2023-05-17T08:43:27.356Z,5.83
2023-05-17T08:48:27.605Z,2.80
2023-05-17T08:50:55.770Z,2.15
2023-05-17T08:53:26.569Z,2.08
2023-05-17T08:58:41.089Z,5.28
2023-05-17T09:01:19.112Z,1.20
2023-05-17T09:03:51.481Z,2.55
2023-05-17T09:06:21.544Z,2.83
2023-05-17T09:08:52.629Z,1.33
2023-05-17T09:11:32.497Z,1.00
2023-05-17T09:14:01.422Z,3.60
2023-05-17T09:16:30.061Z,1.60
2023-05-17T09:18:58.141Z,1.65
2023-05-17T09:21:29.214Z,3.42
2023-05-17T09:26:25.914Z,1.83
2023-05-17T09:28:53.478Z,1.55
2023-05-17T09:31:20.156Z,1.10
2023-05-17T09:33:48.770Z,1.60
2023-05-17T09:36:26.714Z,2.10
2023-05-17T09:39:01.663Z,2.47
2023-05-17T09:41:32.476Z,2.90
2023-05-17T09:44:03.808Z,2.97
2023-05-17T09:46:40.361Z,1.73
2023-05-17T09:49:07.482Z,1.30
2023-05-17T09:51:42.469Z,4.50
2023-05-17T09:54:12.713Z,1.35
2023-05-17T09:56:39.827Z,3.22
2023-05-17T09:59:14.508Z,3.85
2023-05-17T10:01:42.664Z,4.03
2023-05-17T10:04:10.525Z,4.53
2023-05-17T10:09:14.146Z,3.97
2023-05-17T10:11:44.934Z,2.05
2023-05-17T10:14:18.438Z,2.67
2023-05-17T10:16:48.498Z,2.15
2023-05-17T10:19:17.497Z,1.98
2023-05-17T10:21:46.564Z,2.40
2023-05-17T10:24:13.787Z,1.60
2023-05-17T10:26:45.313Z,2.08
2023-05-17T10:29:12.062Z,2.65
2023-05-17T10:31:44.156Z,1.25
2023-05-17T10:34:12.016Z,3.35
2023-05-17T10:36:40.578Z,3.38
2023-05-17T10:39:09.959Z,4.85
2023-05-17T10:41:40.818Z,4.38
2023-05-17T10:44:09.862Z,1.85
2023-05-17T10:46:37.147Z,5.10
2023-05-17T10:49:04.318Z,1.88
2023-05-17T10:51:33.776Z,1.38
2023-05-17T10:54:18.747Z,3.22
2023-05-17T10:56:52.895Z,4.97
2023-05-17T10:59:27.064Z,4.65
2023-05-17T11:01:58.963Z,4.30
2023-05-17T11:04:39.301Z,1.83
2023-05-17T11:07:27.168Z,1.38
2023-05-17T11:10:07.982Z,4.40
2023-05-17T11:12:56.538Z,3.97
2023-05-17T11:15:25.628Z,4.82
2023-05-17T11:17:58.839Z,4.85
2023-05-17T11:20:25.731Z,3.40
2023-05-17T11:23:02.753Z,1.63
2023-05-17T11:25:36.711Z,5.63
2023-05-17T11:28:20.696Z,3.40
2023-05-17T11:30:51.910Z,1.88
2023-05-17T11:33:33.073Z,1.98
2023-05-17T11:36:06.790Z,2.13
2023-05-17T11:38:34.373Z,2.05
2023-05-17T11:41:26.873Z,4.00
2023-05-17T11:43:54.463Z,1.48
2023-05-17T11:46:26.071Z,4.00
2023-05-17T11:48:53.760Z,2.83
2023-05-17T11:51:23.863Z,2.58
2023-05-17T11:53:56.869Z,2.28
2023-05-17T11:56:35.512Z,2.72
2023-05-17T11:59:09.580Z,3.75
2023-05-17T12:01:52.798Z,4.45
2023-05-17T12:04:26.524Z,9.73
2023-05-17T12:06:55.550Z,1.90
2023-05-17T12:09:23.311Z,2.42
2023-05-17T12:11:50.246Z,3.25
2023-05-17T12:14:18.365Z,2.85
2023-05-17T12:16:49.907Z,3.78
2023-05-17T12:19:22.831Z,1.92
2023-05-17T12:21:51.061Z,3.35
2023-05-17T12:24:20.291Z,4.40
2023-05-17T12:26:48.545Z,2.55
2023-05-17T12:29:20.367Z,2.78
2023-05-17T12:31:50.199Z,3.00
2023-05-17T12:34:18.100Z,1.60
2023-05-17T12:36:47.425Z,4.70
2023-05-17T12:39:15.558Z,3.75
2023-05-17T12:41:43.313Z,2.58
2023-05-17T12:44:15.255Z,3.08
2023-05-17T12:46:43.931Z,3.17
2023-05-17T12:49:12.167Z,4.60
2023-05-17T12:51:46.196Z,2.33
2023-05-17T12:54:34.330Z,2.97
2023-05-17T12:57:14.812Z,2.97
2023-05-17T12:59:53.097Z,1.73
2023-05-17T13:02:20.676Z,2.03
2023-05-17T13:04:47.640Z,2.17
2023-05-17T13:07:22.741Z,3.58
2023-05-17T13:09:49.568Z,1.95
2023-05-17T13:12:21.350Z,3.03
2023-05-17T13:14:51.641Z,4.15
2023-05-17T13:17:24.198Z,6.07
2023-05-17T13:19:51.112Z,1.80
2023-05-17T13:22:17.855Z,4.15
2023-05-17T13:24:45.260Z,2.25
2023-05-17T13:27:12.586Z,7.32
2023-05-17T13:29:41.817Z,2.65
2023-05-17T13:32:11.750Z,4.13
2023-05-17T13:34:39.033Z,3.47
2023-05-17T13:37:09.401Z,5.38
2023-05-17T13:39:38.186Z,1.58
2023-05-17T13:42:05.654Z,2.17
2023-05-17T13:44:32.535Z,1.30
2023-05-17T13:46:59.255Z,3.55
2023-05-17T13:49:28.351Z,3.42
2023-05-17T13:51:55.082Z,2.70
2023-05-17T13:54:23.704Z,2.63
2023-05-17T13:56:50.457Z,2.83
2023-05-17T13:59:20.097Z,4.22
2023-05-17T14:01:46.977Z,2.55
2023-05-17T14:04:16.465Z,6.50
2023-05-17T14:06:43.123Z,3.40
2023-05-17T14:09:10.565Z,5.38
2023-05-17T14:11:40.791Z,3.20
2023-05-17T14:14:07.485Z,4.50
2023-05-17T14:16:35.666Z,2.45
2023-05-17T14:19:04.416Z,3.15
2023-05-17T14:21:31.848Z,7.55
2023-05-17T14:23:58.541Z,4.18
2023-05-17T14:26:26.186Z,4.03
2023-05-17T14:28:53.549Z,3.33
2023-05-17T14:31:24.752Z,4.97
2023-05-17T14:33:51.546Z,4.00
2023-05-17T14:36:18.276Z,3.85
2023-05-17T14:38:44.942Z,5.43
2023-05-17T14:41:13.240Z,7.10
2023-05-17T14:43:39.929Z,3.65
2023-05-17T14:46:08.038Z,3.40
2023-05-17T14:48:34.967Z,3.38
2023-05-17T14:51:04.686Z,3.95
2023-05-17T14:53:31.948Z,4.78
2023-05-17T14:55:59.098Z,4.07
2023-05-17T14:58:27.960Z,4.07
2023-05-17T15:03:30.461Z,2.70
2023-05-17T15:05:59.160Z,3.47
2023-05-17T15:08:26.437Z,4.70
2023-05-17T15:10:54.570Z,4.47
2023-05-17T15:13:23.852Z,3.30
2023-05-17T15:15:52.216Z,5.55
2023-05-17T15:18:22.416Z,4.65
2023-05-17T15:20:49.110Z,3.47
2023-05-17T15:23:16.147Z,4.43
2023-05-17T15:25:42.980Z,3.97
2023-05-17T15:28:09.640Z,9.65
2023-05-17T15:30:38.448Z,6.53
2023-05-17T15:33:05.379Z,5.32
2023-05-17T15:35:32.267Z,5.53
2023-05-17T15:38:01.859Z,5.35
2023-05-17T15:40:28.571Z,6.40
2023-05-17T15:42:55.249Z,8.63
2023-05-17T15:45:22.017Z,3.83
2023-05-17T15:47:51.120Z,5.00
2023-05-17T15:50:18.168Z,5.07
2023-05-17T15:52:47.207Z,3.70
2023-05-17T15:55:13.937Z,6.75
2023-05-17T15:57:41.361Z,5.10
2023-05-17T16:00:08.783Z,6.70
2023-05-17T16:02:35.596Z,4.30
2023-05-17T16:05:04.102Z,4.85
2023-05-17T16:07:33.084Z,4.18
2023-05-17T16:09:59.788Z,6.35
2023-05-17T16:12:28.404Z,6.03
2023-05-17T16:14:55.062Z,5.10
2023-05-17T16:17:21.734Z,3.80
2023-05-17T16:19:48.503Z,4.22
2023-05-17T16:22:15.490Z,5.57
2023-05-17T16:24:43.437Z,7.18
2023-05-17T16:27:11.913Z,3.83
2023-05-17T16:29:40.130Z,3.88
2023-05-17T16:32:08.060Z,7.03
2023-05-17T16:34:34.836Z,3.33
2023-05-17T16:37:01.646Z,5.68
2023-05-17T16:39:28.748Z,5.20
2023-05-17T16:41:55.811Z,4.18
2023-05-17T16:44:22.564Z,6.80
2023-05-17T16:46:49.448Z,5.20
2023-05-17T16:49:16.214Z,6.10
2023-05-17T16:51:43.190Z,3.42
2023-05-17T16:54:10.484Z,3.15
2023-05-17T16:56:37.139Z,5.03
2023-05-17T16:59:03.841Z,5.28
2023-05-17T17:01:30.671Z,5.43
2023-05-17T17:03:58.866Z,3.97
2023-05-17T17:06:25.875Z,8.75
2023-05-17T17:08:52.951Z,3.67
2023-05-17T17:11:23.204Z,6.13
2023-05-17T17:13:50.161Z,6.32
2023-05-17T17:16:17.627Z,4.75
2023-05-17T17:18:44.376Z,4.00
2023-05-17T17:21:11.088Z,3.85
2023-05-17T17:23:41.711Z,5.90
2023-05-17T17:26:11.410Z,4.97
2023-05-17T17:28:38.741Z,7.82
2023-05-17T17:31:06.186Z,3.20
2023-05-17T17:33:33.252Z,2.95
2023-05-17T17:36:00.132Z,3.17
2023-05-17T17:38:26.926Z,3.97
2023-05-17T17:40:53.708Z,2.50
2023-05-17T17:43:20.684Z,3.35
2023-05-17T17:45:47.602Z,3.85
2023-05-17T17:48:14.425Z,3.70
2023-05-17T17:50:41.247Z,3.63
2023-05-17T17:53:08.022Z,6.35
2023-05-17T17:55:34.665Z,8.10
2023-05-17T17:58:01.623Z,2.08
2023-05-17T18:00:28.592Z,2.67
2023-05-17T18:02:56.101Z,9.20
2023-05-17T18:05:23.025Z,3.28
2023-05-17T18:07:51.605Z,2.42
2023-05-17T18:10:19.129Z,3.35
2023-05-17T18:12:45.944Z,4.03
2023-05-17T18:15:14.451Z,3.78
2023-05-17T18:17:41.353Z,5.32
2023-05-17T18:20:08.619Z,5.72
2023-05-17T18:22:37.333Z,6.03
2023-05-17T18:25:04.211Z,4.43
2023-05-17T18:27:31.004Z,5.32
2023-05-17T18:29:57.652Z,4.78
2023-05-17T18:32:24.448Z,3.28
2023-05-17T18:34:51.326Z,4.43
2023-05-17T18:37:18.125Z,3.20
2023-05-17T18:39:44.842Z,5.38
2023-05-17T18:42:11.522Z,2.72
2023-05-17T18:44:38.255Z,3.33
2023-05-17T18:47:05.298Z,5.38
2023-05-17T18:49:32.111Z,2.45
2023-05-17T18:51:58.783Z,4.53
2023-05-17T18:54:25.476Z,3.05
2023-05-17T18:56:52.151Z,4.53
2023-05-17T18:59:19.156Z,5.28
2023-05-17T19:01:46.012Z,4.60
2023-05-17T19:04:14.620Z,2.97
2023-05-17T19:06:42.244Z,5.80
2023-05-17T19:09:09.033Z,5.75
2023-05-17T19:11:37.641Z,3.80
2023-05-17T19:14:04.462Z,8.05
2023-05-17T19:16:31.263Z,4.47
2023-05-17T19:18:57.977Z,3.25
2023-05-17T19:21:24.644Z,7.43
2023-05-17T19:23:51.345Z,2.70
2023-05-17T19:26:19.638Z,5.45
2023-05-17T19:28:46.402Z,4.97
2023-05-17T19:31:13.186Z,3.90
2023-05-17T19:33:39.990Z,4.90
2023-05-17T19:36:06.836Z,6.68
2023-05-17T19:38:33.605Z,5.82
2023-05-17T19:41:03.242Z,10.10
2023-05-17T19:43:29.992Z,5.00
2023-05-17T19:45:56.711Z,8.93
2023-05-17T19:48:25.825Z,8.98
2023-05-17T19:50:56.145Z,6.22
2023-05-17T19:55:53.268Z,4.38
2023-05-17T19:58:20.046Z,10.00
2023-05-17T20:00:46.907Z,5.85
2023-05-17T20:03:13.702Z,4.90
2023-05-17T20:05:40.561Z,6.95
2023-05-17T20:08:08.161Z,10.77
2023-05-17T20:10:35.298Z,7.53
2023-05-17T20:13:02.227Z,5.65
2023-05-17T20:15:30.740Z,5.13
2023-05-17T20:17:58.108Z,5.68
2023-05-17T20:20:25.205Z,6.47
2023-05-17T20:22:53.741Z,4.90
2023-05-17T20:25:21.091Z,4.95
2023-05-17T20:27:48.111Z,5.00
2023-05-17T20:30:14.909Z,8.38
2023-05-17T20:32:41.713Z,8.43
2023-05-17T20:35:11.030Z,4.63
2023-05-17T20:37:38.213Z,4.63
2023-05-17T20:40:08.977Z,10.80
2023-05-17T20:45:05.854Z,4.53
2023-05-17T20:47:32.701Z,5.70
2023-05-17T20:49:59.770Z,7.07
2023-05-17T20:54:56.154Z,5.50
2023-05-17T20:57:22.870Z,9.05
2023-05-17T20:59:49.604Z,5.78
2023-05-17T21:02:16.324Z,5.80
2023-05-17T21:04:43.109Z,5.60
2023-05-17T21:07:10.581Z,7.38
2023-05-17T21:09:38.525Z,7.78
2023-05-17T21:12:05.813Z,7.40
2023-05-17T21:14:32.704Z,5.25
2023-05-17T21:16:59.368Z,5.03
2023-05-17T21:19:26.154Z,4.85
2023-05-17T21:21:52.859Z,6.18
2023-05-17T21:24:19.542Z,8.23
2023-05-17T21:26:46.279Z,7.43
2023-05-17T21:29:12.979Z,6.88
2023-05-17T21:31:39.789Z,11.82
2023-05-17T21:34:06.479Z,6.05
2023-05-17T21:36:33.420Z,6.85
2023-05-17T21:39:00.139Z,10.20
2023-05-17T21:41:26.846Z,6.38
2023-05-17T21:43:53.560Z,12.98
2023-05-17T21:46:20.514Z,7.10
2023-05-17T21:48:47.233Z,5.35
2023-05-17T21:51:14.089Z,4.55
2023-05-17T21:53:40.929Z,7.22
2023-05-17T21:56:08.215Z,6.40
2023-05-17T21:58:34.945Z,10.02
2023-05-17T22:01:01.825Z,6.15
2023-05-17T22:03:28.701Z,5.28
2023-05-17T22:05:55.468Z,5.18
2023-05-17T22:08:22.223Z,6.13
2023-05-17T22:10:50.164Z,6.70
2023-05-17T22:13:18.207Z,7.78
2023-05-17T22:15:45.274Z,7.05
2023-05-17T22:18:15.264Z,5.00
2023-05-17T22:20:42.478Z,5.47
2023-05-17T22:23:09.210Z,4.38
2023-05-17T22:25:35.984Z,11.05
2023-05-17T22:28:03.524Z,7.03
2023-05-17T22:30:30.357Z,5.78
2023-05-17T22:32:57.754Z,7.30
2023-05-17T22:35:24.565Z,7.90
2023-05-17T22:37:53.157Z,5.80
2023-05-17T22:40:20.181Z,6.18
2023-05-17T22:42:47.243Z,10.10
2023-05-17T22:45:14.487Z,6.05
2023-05-17T22:47:44.178Z,6.28
2023-05-17T22:50:11.987Z,8.63
2023-05-17T22:52:41.114Z,9.10
2023-05-17T22:55:09.409Z,7.93
2023-05-17T22:57:36.174Z,9.57
2023-05-17T23:00:08.963Z,9.10
2023-05-17T23:02:36.150Z,8.93
2023-05-17T23:05:03.357Z,5.95
2023-05-17T23:07:37.153Z,9.70
2023-05-17T23:10:08.888Z,8.20
2023-05-17T23:12:36.809Z,12.90
2023-05-17T23:15:05.497Z,18.40
2023-05-17T23:17:32.831Z,10.25
2023-05-17T23:20:18.275Z,8.20
2023-05-17T23:22:44.955Z,9.25
2023-05-17T23:25:11.647Z,7.47
2023-05-17T23:27:38.488Z,7.72
2023-05-17T23:30:06.070Z,6.22
2023-05-17T23:32:32.849Z,10.05
2023-05-17T23:35:03.833Z,10.32
2023-05-17T23:37:31.923Z,8.90
2023-05-17T23:39:59.005Z,10.68
2023-05-17T23:42:32.241Z,9.95
2023-05-17T23:45:00.501Z,10.98
2023-05-17T23:47:30.889Z,13.05
2023-05-17T23:49:57.722Z,12.90
2023-05-17T23:52:24.465Z,11.18
2023-05-17T23:54:51.192Z,8.13
2023-05-17T23:57:17.857Z,11.40
2023-05-17T23:59:44.564Z,13.07
